עמוד ראשי
METAR-TAF:

METAR-TAF

שדות תעופה :

Guaymas, מקסיקו

קו רוחב: 27-58N, קו אורך: 110-56W, גובה: 27מטר

תצפית מזג אוויר נוכחית

הדו"ח נערך לפני 9 שעות ו 51דקות, בשעה 01:40 UTC
רוח 16קשר מכיוון דרום-מערב
טמפרטורת 30 צלסיוס
לחות 84%
לחץ 1005 hPa
ראות: 16.1קילומטר
שמיים נקיים

METAR: MMGM 150140Z 22016KT 10SM SKC 30/27 A2967

זמן: 04:31 (11:31 UTC)

תחזית

הדו"ח נערך לפני 5 שעות ו 52דקות, בשעה 05:39 UTC
תחזית בתוקף מ 15 ב 06 UTC עד 16 ב 06 UTC
רוח 15קשר מכיוון דרום-מערב
ראות: 10קילומטר
עננים פזורים בגובה 20000רגל
זמנית מ -
15 ב 10 UTC עד 15 ב 14 UTC
ראות: 6.4קילומטר
עננים בינוניים בגובה 1000רגל
אובך
מ 15 ב 1800UTC
רוח 15קשר מכיוון מערב/דרום-מערב
ראות: 10קילומטר
עננים פזורים בגובה 20000רגל
מ 16 ב 0000UTC
רוח 10קשר מכיוון מערב
ראות: 10קילומטר
עננים פזורים בגובה 20000רגל

TAF: MMGM 150539Z 1506/1606 22015KT P6SM SCT200 TEMPO 1510/1514 4SM HZ BKN010 FM151800 24015KT P6SM SCT200 FM160000 27010KT P6SM SCT200

תצפיות ותחזיות מזג אוויר לגבי יותר מ- 4,000 שדות תעופה ברחבי העולם. דוחות METAR ו- TAF.

התחנות הזמינות מסומנות בנקודות צהובות ואדומות על גבי המפה.

העבר את העכבר לנקודה הצבעונית על מנת לראות את שם התחנה.

לאחר מכן, לחץ כדי לראות את תוכן ואת תחזיות מזג האוויר.

כדי לשנות את המפה: לחץ על הכפתורים הירוקים עם הפלוס השחור כדי להתקרב; על הכפתור הירוק עם המקף כדי להתרחק; או בחיצים הירוקים למפות סמוכות.


METAR-TAF: